createdAt,value
2022-08-07T00:01:44.084Z,87.74
2022-08-07T00:04:24.740Z,88.28
2022-08-07T00:06:55.263Z,88.03
2022-08-07T00:09:35.427Z,88.27
2022-08-07T00:12:06.695Z,88.84
2022-08-07T00:14:41.077Z,88.02
2022-08-07T00:17:14.766Z,88.44
2022-08-07T00:20:01.058Z,88.16
2022-08-07T00:22:35.358Z,88.57
2022-08-07T00:25:11.236Z,88.46
2022-08-07T00:27:52.470Z,88.72
2022-08-07T00:30:28.083Z,88.71
2022-08-07T00:33:00.901Z,88.85
2022-08-07T00:35:32.721Z,88.92
2022-08-07T00:38:06.767Z,88.86
2022-08-07T00:40:40.454Z,89.07
2022-08-07T00:44:00.915Z,89.84
2022-08-07T00:46:05.822Z,89.16
2022-08-07T00:48:42.285Z,89.50
2022-08-07T00:51:13.209Z,89.86
2022-08-07T00:53:50.032Z,89.73
2022-08-07T00:56:21.439Z,89.62
2022-08-07T00:58:51.437Z,88.90
2022-08-07T01:01:21.865Z,89.32
2022-08-07T01:03:55.573Z,90.38
2022-08-07T01:06:31.800Z,89.77
2022-08-07T01:09:03.509Z,90.24
2022-08-07T01:12:24.070Z,89.63
2022-08-07T01:14:28.393Z,89.56
2022-08-07T01:17:00.392Z,89.79
2022-08-07T01:19:39.845Z,90.26
2022-08-07T01:22:16.210Z,90.70
2022-08-07T01:24:54.190Z,90.90
2022-08-07T01:27:32.131Z,90.87
2022-08-07T01:30:06.214Z,91.37
2022-08-07T01:32:37.289Z,91.05
2022-08-07T01:35:12.271Z,91.33
2022-08-07T01:37:50.628Z,91.08
2022-08-07T01:40:23.285Z,92.22
2022-08-07T01:43:03.305Z,91.42
2022-08-07T01:45:37.174Z,91.11
2022-08-07T01:48:29.273Z,91.45
2022-08-07T01:51:24.708Z,91.71
2022-08-07T01:54:12.141Z,90.93
2022-08-07T01:56:56.484Z,91.55
2022-08-07T01:59:45.212Z,91.61
2022-08-07T02:02:32.906Z,90.85
2022-08-07T02:05:48.049Z,91.82
2022-08-07T02:08:23.702Z,91.14
2022-08-07T02:10:58.325Z,91.78
2022-08-07T02:13:56.710Z,91.17
2022-08-07T02:16:32.855Z,91.71
2022-08-07T02:20:04.873Z,91.30
2022-08-07T02:22:00.918Z,91.51
2022-08-07T02:24:34.603Z,92.01
2022-08-07T02:27:08.210Z,92.05
2022-08-07T02:29:48.581Z,91.85
2022-08-07T02:32:30.372Z,92.27
2022-08-07T02:35:02.464Z,92.38
2022-08-07T02:37:43.838Z,92.84
2022-08-07T02:40:35.104Z,92.37
2022-08-07T02:43:07.891Z,92.95
2022-08-07T02:45:59.056Z,92.54
2022-08-07T02:48:35.713Z,92.94
2022-08-07T02:51:42.735Z,93.17
2022-08-07T02:54:11.096Z,92.50
2022-08-07T02:56:45.612Z,92.83
2022-08-07T02:59:24.177Z,92.77
2022-08-07T03:02:02.541Z,92.29
2022-08-07T03:04:34.347Z,92.34
2022-08-07T03:07:07.334Z,92.86
2022-08-07T03:09:47.225Z,92.62
2022-08-07T03:12:22.203Z,91.52
2022-08-07T03:15:02.217Z,92.20
2022-08-07T03:17:53.471Z,92.02
2022-08-07T03:20:28.624Z,91.68
2022-08-07T03:23:00.191Z,91.47
2022-08-07T03:25:41.507Z,91.89
2022-08-07T03:28:37.422Z,91.84
2022-08-07T03:31:24.684Z,91.72
2022-08-07T03:34:18.637Z,91.36
2022-08-07T03:36:57.454Z,91.10
2022-08-07T03:39:46.447Z,91.37
2022-08-07T03:42:22.528Z,91.14
2022-08-07T03:44:57.960Z,91.36
2022-08-07T03:47:47.671Z,91.16
2022-08-07T03:50:22.950Z,91.82
2022-08-07T03:53:01.578Z,92.03
2022-08-07T03:55:53.176Z,92.49
2022-08-07T03:59:05.587Z,91.96
2022-08-07T04:01:17.330Z,91.88
2022-08-07T04:03:55.065Z,91.60
2022-08-07T04:06:36.121Z,91.68
2022-08-07T04:09:19.386Z,91.41
2022-08-07T04:12:23.605Z,90.83
2022-08-07T04:14:49.595Z,90.97
2022-08-07T04:17:23.017Z,90.94
2022-08-07T04:20:14.424Z,90.91
2022-08-07T04:22:53.404Z,90.34
2022-08-07T04:25:56.796Z,90.31
2022-08-07T04:28:28.200Z,90.39
2022-08-07T04:30:59.160Z,90.85
2022-08-07T04:33:33.665Z,91.41
2022-08-07T04:36:10.092Z,91.19
2022-08-07T04:38:42.521Z,90.22
2022-08-07T04:41:18.122Z,90.69
2022-08-07T04:44:12.241Z,90.96
2022-08-07T04:47:07.909Z,90.73
2022-08-07T04:50:11.467Z,90.96
2022-08-07T04:53:40.229Z,90.91
2022-08-07T04:58:15.667Z,90.70
2022-08-07T05:00:12.396Z,90.69
2022-08-07T05:04:00.539Z,91.03
2022-08-07T05:06:19.699Z,91.76
2022-08-07T05:09:46.157Z,92.00
2022-08-07T05:12:30.337Z,92.45
2022-08-07T05:15:23.231Z,92.77
2022-08-07T05:18:09.339Z,93.09
2022-08-07T05:20:48.642Z,92.85
2022-08-07T05:23:48.907Z,93.24
2022-08-07T05:26:26.392Z,94.05
2022-08-07T05:29:04.704Z,94.59
2022-08-07T05:31:40.961Z,94.40
2022-08-07T05:34:27.592Z,94.64
2022-08-07T05:36:59.111Z,95.09
2022-08-07T05:40:05.889Z,94.93
2022-08-07T05:42:34.436Z,94.75
2022-08-07T05:45:25.829Z,95.04
2022-08-07T05:48:07.486Z,95.59
2022-08-07T05:50:43.636Z,95.97
2022-08-07T05:54:09.580Z,96.30
2022-08-07T05:56:12.343Z,96.11
2022-08-07T05:58:52.410Z,96.23
2022-08-07T06:01:34.918Z,96.41
2022-08-07T06:04:09.983Z,96.28
2022-08-07T06:06:46.380Z,96.41
2022-08-07T06:09:20.426Z,96.27
2022-08-07T06:12:12.396Z,96.66
2022-08-07T06:14:49.260Z,96.68
2022-08-07T06:17:31.975Z,96.85
2022-08-07T06:20:25.446Z,97.29
2022-08-07T06:23:25.162Z,97.57
2022-08-07T06:25:58.619Z,97.59
2022-08-07T06:28:32.552Z,97.56
2022-08-07T06:31:04.151Z,97.51
2022-08-07T06:33:36.248Z,97.27
2022-08-07T06:36:12.850Z,97.33
2022-08-07T06:40:17.674Z,97.78
2022-08-07T06:42:06.253Z,97.85
2022-08-07T06:45:18.596Z,97.76
2022-08-07T06:47:59.644Z,97.90
2022-08-07T06:50:43.364Z,97.90
2022-08-07T06:55:28.227Z,97.91
2022-08-07T06:56:48.871Z,97.94
2022-08-07T07:00:12.663Z,97.87
2022-08-07T07:02:53.805Z,98.12
2022-08-07T07:05:15.200Z,98.20
2022-08-07T07:08:07.403Z,98.63
2022-08-07T07:10:47.519Z,98.85
2022-08-07T07:13:58.600Z,98.63
2022-08-07T07:16:45.173Z,99.08
2022-08-07T07:19:56.001Z,98.86
2022-08-07T07:22:36.032Z,98.98
2022-08-07T07:26:30.449Z,98.84
2022-08-07T07:28:42.484Z,98.68
2022-08-07T07:31:22.257Z,98.67
2022-08-07T07:33:57.433Z,98.06
2022-08-07T07:36:32.655Z,98.47
2022-08-07T07:39:05.475Z,98.87
2022-08-07T07:42:02.348Z,98.66
2022-08-07T07:44:30.818Z,98.78
2022-08-07T07:47:16.013Z,98.71
2022-08-07T07:50:35.168Z,98.38
2022-08-07T07:52:47.662Z,98.10
2022-08-07T07:55:21.180Z,98.37
2022-08-07T07:57:58.369Z,98.28
2022-08-07T08:00:34.035Z,98.62
2022-08-07T08:03:16.831Z,98.81
2022-08-07T08:06:03.484Z,98.60
2022-08-07T08:08:39.287Z,99.38
2022-08-07T08:11:16.439Z,99.26
2022-08-07T08:13:55.846Z,99.05
2022-08-07T08:16:35.431Z,99.44
2022-08-07T08:20:15.647Z,99.45
2022-08-07T08:22:20.068Z,98.97
2022-08-07T08:25:42.271Z,99.06
2022-08-07T08:28:38.679Z,98.61
2022-08-07T08:31:22.855Z,98.81
2022-08-07T08:34:26.858Z,98.76
2022-08-07T08:37:00.315Z,98.69
2022-08-07T08:39:39.490Z,98.72
2022-08-07T08:42:34.943Z,98.49
2022-08-07T08:45:41.830Z,98.62
2022-08-07T08:49:03.387Z,98.45
2022-08-07T08:52:12.696Z,98.32
2022-08-07T08:54:52.324Z,98.49
2022-08-07T08:57:52.618Z,98.45
2022-08-07T09:00:28.616Z,98.53
2022-08-07T09:03:08.859Z,98.71
2022-08-07T09:05:57.558Z,98.61
2022-08-07T09:08:49.326Z,98.38
2022-08-07T09:11:50.763Z,98.43
2022-08-07T09:14:32.113Z,98.28
2022-08-07T09:17:22.439Z,98.34
2022-08-07T09:20:34.963Z,98.09
2022-08-07T09:24:29.139Z,98.55
2022-08-07T09:26:13.902Z,98.79
2022-08-07T09:30:04.151Z,98.63
2022-08-07T09:32:17.067Z,99.04
2022-08-07T09:34:57.589Z,98.73
2022-08-07T09:38:10.442Z,98.56
2022-08-07T09:41:16.758Z,98.70
2022-08-07T09:44:30.018Z,99.02
2022-08-07T09:47:49.846Z,99.00
2022-08-07T09:50:23.804Z,98.60
2022-08-07T09:53:08.982Z,98.36
2022-08-07T09:56:06.963Z,98.17
2022-08-07T09:58:55.702Z,98.53
2022-08-07T10:02:14.350Z,98.41
2022-08-07T10:04:53.065Z,98.26
2022-08-07T10:07:31.786Z,98.13
2022-08-07T10:10:29.970Z,98.34
2022-08-07T10:13:54.952Z,98.54
2022-08-07T10:16:25.395Z,99.30
2022-08-07T10:19:21.553Z,99.18
2022-08-07T10:22:24.888Z,98.59
2022-08-07T10:25:52.958Z,99.03
2022-08-07T10:28:24.873Z,98.60
2022-08-07T10:31:19.557Z,98.57
2022-08-07T10:34:14.254Z,98.29
2022-08-07T10:37:12.672Z,98.21
2022-08-07T10:40:30.732Z,98.49
2022-08-07T10:43:36.032Z,98.30
2022-08-07T10:46:15.711Z,98.60
2022-08-07T10:48:59.235Z,98.76
2022-08-07T10:52:01.909Z,98.34
2022-08-07T10:54:55.222Z,98.24
2022-08-07T10:57:56.273Z,98.32
2022-08-07T11:00:36.757Z,97.95
2022-08-07T11:03:15.442Z,98.44
2022-08-07T11:06:05.038Z,98.39
2022-08-07T11:08:50.600Z,98.33
2022-08-07T11:11:35.728Z,98.70
2022-08-07T11:14:44.973Z,98.27
2022-08-07T11:17:47.331Z,98.04
2022-08-07T11:20:57.769Z,98.51
2022-08-07T11:23:38.850Z,98.93
2022-08-07T11:26:30.066Z,98.50
2022-08-07T11:29:13.247Z,98.86
2022-08-07T11:32:26.089Z,98.56
2022-08-07T11:35:01.644Z,98.50
2022-08-07T11:38:12.411Z,97.82
2022-08-07T11:41:29.685Z,97.07
2022-08-07T11:44:52.548Z,97.68
2022-08-07T11:47:55.847Z,97.46
2022-08-07T11:50:57.174Z,97.18
2022-08-07T11:54:00.882Z,97.92
2022-08-07T11:56:34.952Z,98.00
2022-08-07T11:59:22.254Z,97.14
2022-08-07T12:02:30.225Z,97.27
2022-08-07T12:05:28.659Z,96.31
2022-08-07T12:08:34.808Z,96.64
2022-08-07T12:11:32.589Z,96.13
2022-08-07T12:14:31.050Z,96.37
2022-08-07T12:17:19.999Z,95.30
2022-08-07T12:20:18.650Z,94.88
2022-08-07T12:23:14.500Z,93.73
2022-08-07T12:26:05.528Z,94.44
2022-08-07T12:29:07.928Z,93.87
2022-08-07T12:32:03.852Z,93.82
2022-08-07T12:34:42.142Z,93.56
2022-08-07T12:37:23.335Z,93.20
2022-08-07T12:40:03.342Z,91.92
2022-08-07T12:42:36.298Z,93.47
2022-08-07T12:45:14.202Z,92.15
2022-08-07T12:48:13.127Z,92.36
2022-08-07T12:51:17.730Z,91.75
2022-08-07T12:54:03.021Z,91.81
2022-08-07T12:56:55.080Z,92.62
2022-08-07T12:59:53.861Z,91.23
2022-08-07T13:02:42.368Z,91.16
2022-08-07T13:06:02.871Z,91.18
2022-08-07T13:09:01.751Z,90.91
2022-08-07T13:12:15.960Z,90.94
2022-08-07T13:15:23.477Z,90.55
2022-08-07T13:18:34.571Z,90.04
2022-08-07T13:21:09.677Z,89.93
2022-08-07T13:24:01.363Z,90.32
2022-08-07T13:26:57.459Z,89.22
2022-08-07T13:29:47.817Z,88.99
2022-08-07T13:32:34.996Z,87.87
2022-08-07T13:35:25.316Z,89.61
2022-08-07T13:38:37.795Z,88.17
2022-08-07T13:41:41.421Z,88.17
2022-08-07T13:44:14.048Z,87.05
2022-08-07T13:46:50.089Z,87.18
2022-08-07T13:50:34.721Z,87.09
2022-08-07T13:52:32.550Z,87.19
2022-08-07T13:55:25.701Z,86.25
2022-08-07T13:58:31.754Z,86.98
2022-08-07T14:01:11.191Z,87.12
2022-08-07T14:04:06.817Z,85.80
2022-08-07T14:06:36.418Z,84.94
2022-08-07T14:09:16.978Z,84.58
2022-08-07T14:12:10.612Z,84.26
2022-08-07T14:14:49.297Z,83.36
2022-08-07T14:18:12.432Z,82.95
2022-08-07T14:20:42.188Z,83.00
2022-08-07T14:23:58.908Z,83.80
2022-08-07T14:26:30.340Z,83.22
2022-08-07T14:30:09.382Z,82.63
2022-08-07T14:32:19.136Z,82.06
2022-08-07T14:34:52.529Z,81.54
2022-08-07T14:40:26.323Z,81.03
2022-08-07T14:43:59.469Z,81.84
2022-08-07T14:46:00.990Z,80.87
2022-08-07T14:48:33.780Z,79.72
2022-08-07T14:54:30.388Z,78.10
2022-08-07T14:56:53.750Z,78.52
2022-08-07T15:00:05.438Z,77.07
2022-08-07T15:02:31.699Z,73.54
2022-08-07T15:05:20.094Z,75.35
2022-08-07T15:07:54.815Z,75.95
2022-08-07T15:10:29.975Z,74.44
2022-08-07T15:13:11.721Z,72.48
2022-08-07T15:15:52.623Z,74.48
2022-08-07T15:18:45.524Z,72.32
2022-08-07T15:21:44.174Z,70.92
2022-08-07T15:25:14.052Z,70.83
2022-08-07T15:27:20.511Z,71.34
2022-08-07T15:30:06.371Z,69.82
2022-08-07T15:32:51.080Z,73.06
2022-08-07T15:38:51.754Z,75.06
2022-08-07T15:42:44.205Z,74.29
2022-08-07T15:44:23.817Z,74.86
2022-08-07T15:47:09.004Z,75.00
2022-08-07T15:50:04.839Z,75.70
2022-08-07T15:52:39.220Z,76.84
2022-08-07T15:55:13.970Z,77.35
2022-08-07T15:57:53.081Z,78.37
2022-08-07T16:00:43.747Z,78.42
2022-08-07T16:03:46.518Z,79.38
2022-08-07T16:06:15.631Z,78.70
2022-08-07T16:08:49.638Z,78.82
2022-08-07T16:11:30.131Z,78.99
2022-08-07T16:14:29.410Z,78.60
2022-08-07T16:18:02.552Z,78.38
2022-08-07T16:20:34.209Z,79.29
2022-08-07T16:23:53.037Z,79.01
2022-08-07T16:26:39.465Z,79.23
2022-08-07T16:30:11.910Z,79.09
2022-08-07T16:32:59.850Z,78.34
2022-08-07T16:36:08.307Z,75.62
2022-08-07T16:39:10.012Z,74.76
2022-08-07T16:42:17.089Z,75.61
2022-08-07T16:45:31.004Z,76.17
2022-08-07T16:48:06.574Z,74.50
2022-08-07T16:51:20.883Z,76.13
2022-08-07T16:54:06.841Z,77.65
2022-08-07T16:57:15.471Z,79.03
2022-08-07T16:59:52.583Z,78.09
2022-08-07T17:02:51.163Z,78.68
2022-08-07T17:06:02.076Z,79.31
2022-08-07T17:09:04.344Z,79.10
2022-08-07T17:12:04.978Z,79.80
2022-08-07T17:15:23.631Z,79.95
2022-08-07T17:18:40.176Z,80.85
2022-08-07T17:21:26.301Z,79.60
2022-08-07T17:24:23.815Z,80.00
2022-08-07T17:27:06.169Z,79.75
2022-08-07T17:30:14.100Z,80.73
2022-08-07T17:33:00.007Z,81.26
2022-08-07T17:35:55.726Z,81.92
2022-08-07T17:38:50.367Z,81.84
2022-08-07T17:42:02.780Z,83.51
2022-08-07T17:44:45.359Z,82.35
2022-08-07T17:47:42.282Z,82.85
2022-08-07T17:50:30.504Z,82.68
2022-08-07T17:53:08.744Z,82.98
2022-08-07T17:56:28.493Z,83.39
2022-08-07T17:59:16.910Z,82.94
2022-08-07T18:02:00.162Z,82.81
2022-08-07T18:05:21.965Z,82.84
2022-08-07T18:08:24.109Z,83.29
2022-08-07T18:11:53.751Z,83.61
2022-08-07T18:14:29.491Z,83.79
2022-08-07T18:17:06.525Z,84.12
2022-08-07T18:21:11.508Z,84.07
2022-08-07T18:22:56.498Z,84.17
2022-08-07T18:25:40.307Z,84.63
2022-08-07T18:28:58.374Z,84.30
2022-08-07T18:31:41.477Z,84.64
2022-08-07T18:34:35.955Z,84.84
2022-08-07T18:38:55.492Z,84.38
2022-08-07T18:40:53.527Z,84.28
2022-08-07T18:43:48.881Z,84.73
2022-08-07T18:46:30.408Z,85.12
2022-08-07T18:50:31.745Z,85.24
2022-08-07T18:52:56.479Z,84.94
2022-08-07T18:55:57.710Z,85.23
2022-08-07T18:59:47.845Z,85.51
2022-08-07T19:02:36.638Z,86.05
2022-08-07T19:06:03.390Z,86.57
2022-08-07T19:08:58.672Z,86.50
2022-08-07T19:12:11.044Z,86.99
2022-08-07T19:16:05.803Z,86.99
2022-08-07T19:18:54.547Z,87.27
2022-08-07T19:21:58.476Z,87.55
2022-08-07T19:24:43.229Z,87.59
2022-08-07T19:28:58.224Z,87.90
2022-08-07T19:31:06.040Z,88.09
2022-08-07T19:33:13.394Z,87.76
2022-08-07T19:35:53.659Z,88.36
2022-08-07T19:38:29.445Z,88.40
2022-08-07T19:41:02.290Z,88.36
2022-08-07T19:43:48.697Z,88.45
2022-08-07T19:46:29.158Z,88.46
2022-08-07T19:49:09.852Z,88.43
2022-08-07T19:51:52.212Z,88.42
2022-08-07T19:54:33.669Z,88.69
2022-08-07T19:58:03.352Z,88.76
2022-08-07T20:00:29.127Z,88.85
2022-08-07T20:03:04.516Z,88.82
2022-08-07T20:06:00.785Z,88.90
2022-08-07T20:08:39.533Z,89.04
2022-08-07T20:12:22.863Z,89.30
2022-08-07T20:14:31.385Z,89.25
2022-08-07T20:17:06.912Z,89.49
2022-08-07T20:19:48.364Z,89.54
2022-08-07T20:22:34.017Z,90.08
2022-08-07T20:25:19.928Z,90.23
2022-08-07T20:27:58.715Z,90.01
2022-08-07T20:30:34.522Z,90.11
2022-08-07T20:33:37.011Z,90.54
2022-08-07T20:36:06.275Z,90.94
2022-08-07T20:38:59.557Z,90.43
2022-08-07T20:41:40.109Z,90.47
2022-08-07T20:44:13.042Z,90.47
2022-08-07T20:46:45.795Z,90.48
2022-08-07T20:49:58.114Z,90.90
2022-08-07T20:52:24.448Z,90.87
2022-08-07T20:55:00.769Z,91.23
2022-08-07T20:58:02.488Z,91.33
2022-08-07T21:00:48.995Z,91.76
2022-08-07T21:03:23.374Z,91.90
2022-08-07T21:06:28.219Z,91.84
2022-08-07T21:09:14.038Z,91.75
2022-08-07T21:11:51.068Z,92.05
2022-08-07T21:14:33.184Z,92.06
2022-08-07T21:18:03.270Z,92.09
2022-08-07T21:20:05.553Z,92.18
2022-08-07T21:22:51.039Z,92.34
2022-08-07T21:25:59.129Z,92.39
2022-08-07T21:28:48.910Z,92.69
2022-08-07T21:32:41.704Z,92.86
2022-08-07T21:34:48.151Z,93.15
2022-08-07T21:38:01.137Z,93.28
2022-08-07T21:40:35.996Z,93.17
2022-08-07T21:43:10.715Z,93.41
2022-08-07T21:46:05.332Z,93.52
2022-08-07T21:48:55.723Z,93.52
2022-08-07T21:51:51.050Z,93.71
2022-08-07T21:54:48.224Z,93.86
2022-08-07T21:57:53.729Z,93.95
2022-08-07T22:00:25.861Z,94.47
2022-08-07T22:03:05.650Z,94.75
2022-08-07T22:06:04.944Z,94.90
2022-08-07T22:08:52.014Z,94.83
2022-08-07T22:11:30.512Z,94.85
2022-08-07T22:14:05.009Z,94.40
2022-08-07T22:16:46.829Z,94.14
2022-08-07T22:19:57.238Z,94.14
2022-08-07T22:22:36.543Z,94.53
2022-08-07T22:25:17.260Z,94.66
2022-08-07T22:28:32.177Z,94.80
2022-08-07T22:31:55.889Z,95.27
2022-08-07T22:34:13.243Z,95.48
2022-08-07T22:37:09.453Z,95.54
2022-08-07T22:40:18.432Z,95.55
2022-08-07T22:42:53.576Z,96.13
2022-08-07T22:46:04.629Z,96.34
2022-08-07T22:48:55.521Z,96.37
2022-08-07T22:51:52.222Z,96.33
2022-08-07T22:54:40.651Z,96.32
2022-08-07T22:57:52.753Z,96.38
2022-08-07T23:00:55.003Z,96.42
2022-08-07T23:03:58.802Z,96.51
2022-08-07T23:06:51.308Z,96.57
2022-08-07T23:10:37.351Z,96.65
2022-08-07T23:14:10.746Z,96.83
2022-08-07T23:17:04.276Z,96.94
2022-08-07T23:20:08.836Z,96.99
2022-08-07T23:22:52.296Z,96.92
2022-08-07T23:25:50.335Z,96.76
2022-08-07T23:28:54.383Z,96.71
2022-08-07T23:32:49.662Z,96.67
2022-08-07T23:35:01.593Z,96.71
2022-08-07T23:38:01.269Z,96.68
2022-08-07T23:40:59.817Z,96.57
2022-08-07T23:43:45.421Z,96.55
2022-08-07T23:46:23.477Z,96.62
2022-08-07T23:49:49.947Z,96.56
2022-08-07T23:53:11.905Z,96.58
2022-08-07T23:55:54.226Z,96.87
2022-08-07T23:58:47.457Z,97.19
